createdAt,value
2022-12-08T00:03:05.552Z,5.30
2022-12-08T00:08:28.657Z,5.30
2022-12-08T00:13:32.420Z,5.30
2022-12-08T00:18:37.608Z,5.30
2022-12-08T00:23:41.312Z,5.20
2022-12-08T00:28:44.992Z,5.20
2022-12-08T00:33:50.070Z,5.20
2022-12-08T00:38:53.818Z,5.10
2022-12-08T00:43:57.512Z,5.10
2022-12-08T00:49:02.640Z,5.10
2022-12-08T00:54:06.827Z,5.10
2022-12-08T00:59:10.952Z,5.20
2022-12-08T01:04:18.367Z,5.20
2022-12-08T01:09:22.042Z,5.20
2022-12-08T01:14:25.922Z,5.20
2022-12-08T01:19:31.163Z,5.20
2022-12-08T01:24:35.267Z,5.20
2022-12-08T01:29:38.950Z,5.20
2022-12-08T01:34:44.146Z,5.20
2022-12-08T01:39:47.881Z,5.20
2022-12-08T01:44:59.796Z,5.20
2022-12-08T01:50:07.471Z,5.20
2022-12-08T01:55:17.993Z,5.20
2022-12-08T02:00:23.119Z,5.20
2022-12-08T02:05:30.623Z,5.20
2022-12-08T02:10:36.618Z,5.20
2022-12-08T02:15:49.839Z,5.20
2022-12-08T02:21:01.837Z,5.20
2022-12-08T02:26:40.411Z,5.20
2022-12-08T02:32:00.232Z,5.20
2022-12-08T02:37:11.131Z,5.20
2022-12-08T02:42:22.188Z,5.10
2022-12-08T02:47:27.853Z,5.20
2022-12-08T02:52:44.436Z,5.20
2022-12-08T02:58:07.018Z,5.20
2022-12-08T03:03:19.243Z,5.20
2022-12-08T03:08:33.515Z,5.20
2022-12-08T03:13:42.493Z,5.20
2022-12-08T03:18:50.706Z,5.20
2022-12-08T03:23:57.560Z,5.20
2022-12-08T03:29:01.608Z,5.20
2022-12-08T03:34:06.823Z,5.20
2022-12-08T03:39:13.179Z,5.20
2022-12-08T03:44:16.847Z,5.20
2022-12-08T03:49:20.442Z,5.20
2022-12-08T03:54:25.538Z,5.20
2022-12-08T03:59:29.184Z,5.20
2022-12-08T04:04:32.951Z,5.20
2022-12-08T04:09:38.981Z,5.20
2022-12-08T04:14:42.857Z,5.20
2022-12-08T04:19:46.548Z,5.20
2022-12-08T04:24:51.511Z,5.20
2022-12-08T04:29:55.306Z,5.20
2022-12-08T04:34:59.302Z,5.20
2022-12-08T04:40:04.837Z,5.20
2022-12-08T04:45:09.276Z,5.30
2022-12-08T04:50:13.204Z,5.20
2022-12-08T04:55:18.757Z,5.20
2022-12-08T05:00:22.509Z,5.10
2022-12-08T05:05:26.175Z,5.10
2022-12-08T05:10:31.203Z,5.10
2022-12-08T05:15:34.958Z,5.10
2022-12-08T05:20:38.682Z,5.00
2022-12-08T05:25:43.718Z,5.10
2022-12-08T05:30:47.586Z,5.10
2022-12-08T05:35:55.054Z,5.10
2022-12-08T05:41:00.119Z,5.10
2022-12-08T05:46:03.890Z,5.10
2022-12-08T05:51:13.467Z,5.10
2022-12-08T05:56:19.693Z,5.10
2022-12-08T06:01:24.997Z,5.10
2022-12-08T06:06:29.494Z,5.10
2022-12-08T06:11:35.572Z,5.10
2022-12-08T06:16:41.730Z,5.10
2022-12-08T06:21:45.378Z,5.20
2022-12-08T06:26:50.450Z,5.20
2022-12-08T06:31:54.185Z,5.20
2022-12-08T06:36:57.927Z,5.20
2022-12-08T06:42:20.244Z,5.30
2022-12-08T06:47:26.361Z,5.30
2022-12-08T06:52:30.322Z,5.30
2022-12-08T06:57:35.694Z,5.30
2022-12-08T07:02:39.989Z,5.30
2022-12-08T07:07:43.823Z,5.30
2022-12-08T07:12:48.880Z,5.30
2022-12-08T07:17:57.915Z,5.30
2022-12-08T07:23:03.396Z,5.30
2022-12-08T07:28:12.501Z,5.30
2022-12-08T07:33:16.209Z,5.30
2022-12-08T07:38:20.352Z,5.20
2022-12-08T07:43:25.499Z,5.20
2022-12-08T07:48:29.792Z,5.20
2022-12-08T07:53:33.559Z,5.20
2022-12-08T07:58:38.671Z,5.20
2022-12-08T08:03:42.337Z,5.10
2022-12-08T08:08:46.060Z,5.10
2022-12-08T08:13:51.678Z,5.00
2022-12-08T08:18:55.632Z,5.00
2022-12-08T08:24:00.208Z,5.00
2022-12-08T08:29:05.341Z,5.00
2022-12-08T08:34:10.444Z,4.90
2022-12-08T08:39:14.407Z,5.00
2022-12-08T08:44:19.450Z,4.90
2022-12-08T08:49:23.162Z,4.90
2022-12-08T08:54:26.991Z,5.00
2022-12-08T08:59:32.451Z,4.90
2022-12-08T09:04:36.705Z,4.90
2022-12-08T09:09:40.893Z,4.90
2022-12-08T09:14:46.354Z,5.00
2022-12-08T09:19:50.009Z,5.00
2022-12-08T09:24:53.729Z,5.00
2022-12-08T09:29:58.791Z,5.10
2022-12-08T09:35:02.578Z,5.10
2022-12-08T09:40:08.148Z,5.10
2022-12-08T09:45:15.293Z,5.10
2022-12-08T09:50:28.432Z,5.10
2022-12-08T09:55:41.775Z,5.10
2022-12-08T10:00:46.863Z,5.10
2022-12-08T10:06:01.221Z,5.10
2022-12-08T10:11:11.998Z,5.10
2022-12-08T10:16:29.565Z,5.20
2022-12-08T10:21:34.355Z,5.20
2022-12-08T10:26:38.018Z,5.20
2022-12-08T10:31:43.872Z,5.20
2022-12-08T10:36:50.020Z,5.20
2022-12-08T10:41:53.666Z,5.30
2022-12-08T10:46:58.956Z,5.30
2022-12-08T10:52:02.785Z,5.20
2022-12-08T10:57:06.585Z,5.20
2022-12-08T11:02:19.946Z,5.20
2022-12-08T11:07:24.514Z,5.20
2022-12-08T11:12:30.367Z,5.30
2022-12-08T11:17:39.569Z,5.30
2022-12-08T11:22:44.685Z,5.30
2022-12-08T11:27:50.956Z,5.30
2022-12-08T11:32:59.657Z,5.30
2022-12-08T11:38:21.069Z,5.20
2022-12-08T11:43:32.128Z,5.20
2022-12-08T11:48:41.733Z,5.20
2022-12-08T11:53:52.823Z,5.20
2022-12-08T11:58:59.722Z,5.20
2022-12-08T12:04:16.839Z,5.20
2022-12-08T12:09:32.256Z,5.20
2022-12-08T12:15:09.427Z,5.30
2022-12-08T12:20:20.953Z,5.40
2022-12-08T12:25:28.118Z,5.40
2022-12-08T12:30:51.233Z,5.40
2022-12-08T12:35:59.301Z,5.40
2022-12-08T12:41:05.896Z,5.40
2022-12-08T12:46:42.190Z,5.40
2022-12-08T12:51:48.799Z,5.40
2022-12-08T12:56:55.286Z,5.40
2022-12-08T13:01:59.280Z,5.50
2022-12-08T13:07:04.822Z,5.50
2022-12-08T13:12:19.229Z,5.50
2022-12-08T13:17:31.183Z,5.60
2022-12-08T13:23:12.142Z,5.50
2022-12-08T13:28:21.967Z,5.50
2022-12-08T13:33:32.245Z,5.40
2022-12-08T13:38:39.963Z,5.40
2022-12-08T13:44:14.291Z,5.40
2022-12-08T14:00:17.174Z,5.50
2022-12-08T14:05:35.228Z,5.50
2022-12-08T14:11:02.285Z,5.40
2022-12-08T14:16:06.502Z,5.40
2022-12-08T14:21:21.948Z,5.40
2022-12-08T14:26:27.254Z,5.40
2022-12-08T14:31:31.163Z,5.30
2022-12-08T14:36:36.329Z,5.30
2022-12-08T14:41:41.395Z,5.30
2022-12-08T14:47:05.907Z,5.30
2022-12-08T14:52:12.151Z,5.20
2022-12-08T14:57:17.563Z,5.20
2022-12-08T15:02:27.572Z,5.20
2022-12-08T15:07:35.631Z,5.10
2022-12-08T15:12:40.617Z,5.10
2022-12-08T15:17:46.890Z,5.10
2022-12-08T15:22:50.725Z,5.00
2022-12-08T15:27:56.579Z,4.90
2022-12-08T15:33:00.216Z,4.90
2022-12-08T15:38:03.940Z,4.80
2022-12-08T15:43:11.396Z,4.80
2022-12-08T15:48:19.299Z,4.80
2022-12-08T15:53:23.515Z,4.70
2022-12-08T15:58:53.157Z,4.70
2022-12-08T16:09:20.795Z,4.60
2022-12-08T16:15:23.375Z,4.60
2022-12-08T16:19:50.259Z,4.50
2022-12-08T16:24:54.475Z,4.50
2022-12-08T16:30:00.827Z,4.40
2022-12-08T16:35:05.305Z,4.40
2022-12-08T16:40:10.775Z,4.40
2022-12-08T16:45:17.725Z,4.30
2022-12-08T16:50:24.201Z,4.40
2022-12-08T16:55:28.477Z,4.30
2022-12-08T17:00:36.931Z,4.30
2022-12-08T17:05:42.441Z,4.30
2022-12-08T17:11:06.259Z,4.30
2022-12-08T17:16:15.832Z,4.30
2022-12-08T17:21:19.830Z,4.30
2022-12-08T17:26:23.630Z,4.20
2022-12-08T17:31:30.849Z,4.20
2022-12-08T17:36:35.088Z,4.30
2022-12-08T17:41:38.860Z,4.30
2022-12-08T17:46:49.156Z,4.40
2022-12-08T17:51:57.430Z,4.40
2022-12-08T17:57:01.641Z,4.40
2022-12-08T18:02:07.048Z,4.40
2022-12-08T18:07:10.859Z,4.40
2022-12-08T18:12:19.301Z,4.40
2022-12-08T18:17:27.457Z,4.40
2022-12-08T18:22:31.082Z,4.30
2022-12-08T18:27:38.640Z,4.30
2022-12-08T18:32:50.685Z,4.30
2022-12-08T18:37:56.643Z,4.30
2022-12-08T18:43:00.469Z,4.20
2022-12-08T18:48:06.761Z,4.20
2022-12-08T18:53:10.711Z,4.20
2022-12-08T18:58:15.439Z,4.20
2022-12-08T19:03:20.691Z,4.10
2022-12-08T19:08:29.692Z,4.20
2022-12-08T19:13:35.015Z,4.20
2022-12-08T19:18:40.294Z,4.10
2022-12-08T19:23:44.190Z,4.20
2022-12-08T19:28:48.265Z,4.10
2022-12-08T19:33:53.595Z,4.10
2022-12-08T19:39:15.758Z,4.00
2022-12-08T19:44:38.682Z,4.00
2022-12-08T19:49:44.259Z,4.00
2022-12-08T19:54:48.657Z,3.90
2022-12-08T19:59:56.439Z,3.90
2022-12-08T20:05:01.946Z,3.90
2022-12-08T20:10:07.551Z,3.90
2022-12-08T20:15:12.337Z,3.90
2022-12-08T20:20:17.611Z,3.80
2022-12-08T20:25:21.359Z,3.90
2022-12-08T20:30:25.211Z,3.80
2022-12-08T20:35:30.555Z,3.80
2022-12-08T20:40:34.530Z,3.80
2022-12-08T20:45:38.454Z,3.70
2022-12-08T20:50:43.712Z,3.70
2022-12-08T20:55:47.654Z,3.60
2022-12-08T21:00:51.828Z,3.60
2022-12-08T21:05:57.148Z,3.50
2022-12-08T21:11:01.086Z,3.50
2022-12-08T21:16:05.378Z,3.50
2022-12-08T21:21:13.097Z,3.40
2022-12-08T21:26:19.955Z,3.40
2022-12-08T21:31:26.490Z,3.40
2022-12-08T21:36:31.994Z,3.30
2022-12-08T21:41:53.470Z,3.30
2022-12-08T21:46:57.561Z,3.30
2022-12-08T21:52:02.973Z,3.20
2022-12-08T21:57:06.832Z,3.20
2022-12-08T22:02:18.037Z,3.20
2022-12-08T22:07:26.302Z,3.20
2022-12-08T22:12:30.204Z,3.20
2022-12-08T22:17:38.103Z,3.30
2022-12-08T22:22:44.007Z,3.30
2022-12-08T22:27:47.955Z,3.30
2022-12-08T22:32:52.150Z,3.40
2022-12-08T22:37:57.839Z,3.40
2022-12-08T22:43:01.715Z,3.40
2022-12-08T22:48:05.981Z,3.50
2022-12-08T22:53:12.378Z,3.50
2022-12-08T22:58:16.156Z,3.50
2022-12-08T23:03:20.084Z,3.60
2022-12-08T23:08:25.644Z,3.60
2022-12-08T23:13:29.428Z,3.60
2022-12-08T23:18:33.273Z,3.60
2022-12-08T23:23:38.664Z,3.70
2022-12-08T23:28:42.417Z,3.70
2022-12-08T23:33:46.260Z,3.70
2022-12-08T23:38:51.503Z,3.70
2022-12-08T23:43:55.420Z,3.70
2022-12-08T23:48:59.315Z,3.70
2022-12-08T23:54:07.056Z,3.70
2022-12-08T23:59:11.213Z,3.80
